Time;durP1;ratioP1;P1;durP2;ratioP2;P2;SDS_P1;SDS_P2;PMS_P1;PMS_P2;Temp;Humidity;BMP_temperature;BMP_pressure;BME280_temperature;BME280_humidity;BME280_pressure;Samples;Min_cycle;Max_cycle;Signal;HPM_P1;HPM_P2
2024/04/10 00:00:02;;;;;;;;;;;7.90;1.00;;;;;;5418304;26;19929;-76
2024/04/10 00:02:28;;;;;;;;;;;7.80;1.00;;;;;;5429635;26;19929;-76
2024/04/10 00:04:56;;;;;;;;;;;7.80;1.00;;;;;;5428686;26;19936;-76
2024/04/10 00:07:21;;;;;;;;;;;7.70;1.00;;;;;;5410339;26;19941;-77
2024/04/10 00:09:47;;;;;;;;;;;7.70;1.00;;;;;;5435731;26;19935;-76
2024/04/10 00:12:13;;;;;;;;;;;7.70;1.00;;;;;;5419307;26;20367;-77
2024/04/10 00:14:38;;;;;;;;;;;7.60;1.00;;;;;;5417775;26;19929;-77
2024/04/10 00:17:07;;;;;;;;;;;7.60;1.00;;;;;;5396274;26;20279;-77
2024/04/10 00:19:32;;;;;;;;;;;7.60;1.00;;;;;;5418240;26;20413;-77
2024/04/10 00:21:58;;;;;;;;;;;7.60;1.00;;;;;;5439198;26;19929;-76
2024/04/10 00:24:23;;;;;;;;;;;7.60;1.00;;;;;;5419116;26;19965;-76
2024/04/10 00:26:54;;;;;;;;;;;7.70;1.00;;;;;;5419365;26;19929;-77
2024/04/10 00:29:20;;;;;;;;;;;7.70;1.00;;;;;;5424077;26;19937;-77
2024/04/10 00:31:51;;;;;;;;;;;7.70;1.00;;;;;;5426970;26;19929;-78
2024/04/10 00:34:25;;;;;;;;;;;7.60;1.00;;;;;;5431965;26;19929;-77
2024/04/10 00:36:51;;;;;;;;;;;7.60;1.00;;;;;;5417557;26;19936;-78
2024/04/10 00:39:19;;;;;;;;;;;7.70;1.00;;;;;;5418987;26;19929;-78
2024/04/10 00:41:44;;;;;;;;;;;7.70;1.00;;;;;;5427128;26;19940;-76
2024/04/10 00:44:10;;;;;;;;;;;7.70;1.00;;;;;;5428884;26;19929;-76
2024/04/10 00:46:35;;;;;;;;;;;7.60;1.00;;;;;;5418838;26;19936;-77
2024/04/10 00:49:07;;;;;;;;;;;7.60;1.00;;;;;;5418811;26;19932;-76
2024/04/10 00:51:37;;;;;;;;;;;7.60;1.00;;;;;;5394780;26;19957;-76
2024/04/10 00:54:13;;;;;;;;;;;7.70;1.00;;;;;;5421503;26;20354;-76
2024/04/10 00:56:38;;;;;;;;;;;7.60;1.00;;;;;;5432823;26;20405;-77
2024/04/10 00:59:04;;;;;;;;;;;7.60;1.00;;;;;;5418455;26;19936;-77
2024/04/10 01:01:30;;;;;;;;;;;7.60;1.00;;;;;;5413300;26;20004;-77
2024/04/10 01:04:00;;;;;;;;;;;7.60;1.00;;;;;;5418249;26;19931;-77
2024/04/10 01:06:29;;;;;;;;;;;7.60;1.00;;;;;;5418414;26;19929;-76
2024/04/10 01:09:01;;;;;;;;;;;7.40;1.00;;;;;;5418222;26;19929;-76
2024/04/10 01:11:26;;;;;;;;;;;7.40;1.00;;;;;;5422731;26;19940;-77
2024/04/10 01:13:52;;;;;;;;;;;7.40;1.00;;;;;;5414146;26;19929;-77
2024/04/10 01:16:18;;;;;;;;;;;7.30;1.00;;;;;;5417984;26;20001;-78
2024/04/10 01:18:43;;;;;;;;;;;7.30;1.00;;;;;;5418185;26;19962;-77
2024/04/10 01:21:09;;;;;;;;;;;7.30;1.00;;;;;;5418105;26;19928;-77
2024/04/10 01:23:37;;;;;;;;;;;7.30;1.00;;;;;;5418360;26;19937;-77
2024/04/10 01:26:02;;;;;;;;;;;7.20;1.00;;;;;;5431482;26;19935;-77
2024/04/10 01:28:31;;;;;;;;;;;7.20;1.00;;;;;;5424546;26;19929;-77
2024/04/10 01:30:56;;;;;;;;;;;7.10;1.00;;;;;;5418221;26;19965;-77
2024/04/10 01:33:24;;;;;;;;;;;7.20;1.00;;;;;;5418301;26;19929;-77
2024/04/10 01:37:43;;;;;;;;;;;7.10;1.00;;;;;;5546654;25;19935;-75
2024/04/10 01:40:09;;;;;;;;;;;7.10;1.00;;;;;;5513714;25;20370;-74
2024/04/10 01:42:37;;;;;;;;;;;7.00;1.00;;;;;;5524932;25;19936;-75
2024/04/10 01:45:03;;;;;;;;;;;7.00;1.00;;;;;;5501285;25;19928;-75
2024/04/10 01:47:29;;;;;;;;;;;6.90;1.00;;;;;;5507943;25;19938;-75
2024/04/10 01:49:54;;;;;;;;;;;6.90;1.00;;;;;;5527064;25;20364;-75
2024/04/10 01:52:20;;;;;;;;;;;6.80;1.00;;;;;;5487034;26;19936;-75
2024/04/10 01:54:50;;;;;;;;;;;6.60;1.00;;;;;;5497101;26;19940;-75
2024/04/10 01:57:16;;;;;;;;;;;6.60;1.00;;;;;;5495941;26;20388;-76
2024/04/10 01:59:41;;;;;;;;;;;6.50;1.00;;;;;;5505901;25;19927;-75
2024/04/10 02:02:07;;;;;;;;;;;6.50;1.00;;;;;;5523005;25;19928;-77
2024/04/10 02:04:34;;;;;;;;;;;6.50;1.00;;;;;;5484539;26;19931;-75
2024/04/10 02:07:00;;;;;;;;;;;6.50;1.00;;;;;;5527673;25;19927;-75
2024/04/10 02:09:31;;;;;;;;;;;6.50;1.00;;;;;;5537220;25;20266;-75
2024/04/10 02:11:57;;;;;;;;;;;6.50;1.00;;;;;;5533621;25;20309;-75
2024/04/10 02:14:25;;;;;;;;;;;6.50;1.00;;;;;;5496093;26;19928;-75
2024/04/10 02:16:50;;;;;;;;;;;6.50;1.00;;;;;;5484455;26;19929;-75
2024/04/10 02:19:16;;;;;;;;;;;6.40;1.00;;;;;;5494780;26;19929;-75
2024/04/10 02:21:43;;;;;;;;;;;6.40;1.00;;;;;;5514288;25;19933;-75
2024/04/10 02:24:08;;;;;;;;;;;6.40;1.00;;;;;;5495110;26;20018;-76
2024/04/10 02:26:37;;;;;;;;;;;6.40;1.00;;;;;;5517576;25;19935;-76
2024/04/10 02:29:02;;;;;;;;;;;6.30;1.00;;;;;;5493876;25;19935;-75
2024/04/10 02:31:28;;;;;;;;;;;6.30;1.00;;;;;;5498214;26;20289;-75
2024/04/10 02:33:53;;;;;;;;;;;6.30;1.00;;;;;;5498312;25;19929;-75
2024/04/10 02:36:19;;;;;;;;;;;6.30;1.00;;;;;;5482252;26;19997;-75
2024/04/10 02:38:49;;;;;;;;;;;6.20;1.00;;;;;;5471832;26;19929;-75
2024/04/10 02:41:19;;;;;;;;;;;6.20;1.00;;;;;;5498527;25;19928;-75
2024/04/10 02:43:49;;;;;;;;;;;6.20;1.00;;;;;;5524942;25;19928;-75
2024/04/10 02:46:19;;;;;;;;;;;6.10;1.00;;;;;;5479905;26;19935;-75
2024/04/10 02:48:44;;;;;;;;;;;6.10;1.00;;;;;;5476844;26;19936;-75
2024/04/10 02:51:10;;;;;;;;;;;6.00;1.00;;;;;;5495153;26;19935;-75
2024/04/10 02:53:37;;;;;;;;;;;6.10;1.00;;;;;;5471194;26;19936;-77
2024/04/10 02:56:07;;;;;;;;;;;6.00;1.00;;;;;;5490968;26;20619;-77
2024/04/10 02:58:32;;;;;;;;;;;6.00;1.00;;;;;;5492764;26;19959;-77
2024/04/10 03:00:59;;;;;;;;;;;6.00;1.00;;;;;;5487250;26;19997;-77
2024/04/10 03:03:31;;;;;;;;;;;6.10;1.00;;;;;;5473301;26;19928;-77
2024/04/10 03:06:03;;;;;;;;;;;6.10;1.00;;;;;;5473828;26;19934;-77
2024/04/10 03:08:29;;;;;;;;;;;6.10;1.00;;;;;;5506827;26;19935;-77
2024/04/10 03:10:54;;;;;;;;;;;6.20;1.00;;;;;;5459765;26;19964;-77
2024/04/10 03:13:25;;;;;;;;;;;6.30;1.00;;;;;;5422272;25;19940;-78
2024/04/10 03:15:55;;;;;;;;;;;6.30;1.00;;;;;;5451149;26;19928;-77
2024/04/10 03:18:25;;;;;;;;;;;6.30;1.00;;;;;;5490406;26;19935;-77
2024/04/10 03:20:51;;;;;;;;;;;6.40;1.00;;;;;;5467851;26;19936;-77
2024/04/10 03:23:16;;;;;;;;;;;6.40;1.00;;;;;;5465359;26;19934;-77
2024/04/10 03:25:42;;;;;;;;;;;6.50;1.00;;;;;;5440951;26;19957;-77
2024/04/10 03:28:08;;;;;;;;;;;8.50;1.00;;;;;;5476578;26;19936;-78
2024/04/10 03:30:34;;;;;;;;;;;6.60;1.00;;;;;;5448163;26;19929;-76
2024/04/10 03:33:01;;;;;;;;;;;9.40;1.00;;;;;;5453869;26;19997;-76
2024/04/10 03:35:38;;;;;;;;;;;6.70;1.00;;;;;;5463114;26;20000;-77
2024/04/10 03:38:03;;;;;;;;;;;6.70;1.00;;;;;;5483700;26;19927;-77
2024/04/10 03:40:29;;;;;;;;;;;6.70;1.00;;;;;;5456484;26;19928;-77
2024/04/10 03:42:55;;;;;;;;;;;6.70;1.00;;;;;;5458683;26;19928;-77
2024/04/10 03:45:20;;;;;;;;;;;6.80;1.00;;;;;;5459010;26;19928;-77
2024/04/10 03:47:49;;;;;;;;;;;6.80;1.00;;;;;;5457811;26;19929;-76
2024/04/10 03:50:14;;;;;;;;;;;6.90;1.00;;;;;;5469874;26;19928;-77
2024/04/10 03:52:43;;;;;;;;;;;6.90;1.00;;;;;;5464278;26;19935;-77
2024/04/10 03:55:08;;;;;;;;;;;6.80;1.00;;;;;;5482882;26;19935;-77
2024/04/10 03:57:37;;;;;;;;;;;6.90;1.00;;;;;;5461626;26;19928;-77
2024/04/10 04:00:03;;;;;;;;;;;7.10;1.00;;;;;;5463837;26;19928;-77
2024/04/10 04:02:37;;;;;;;;;;;7.10;1.00;;;;;;5469294;26;19928;-78
2024/04/10 04:05:07;;;;;;;;;;;7.20;1.00;;;;;;5448522;26;19929;-77
2024/04/10 04:07:33;;;;;;;;;;;7.20;1.00;;;;;;5442733;26;20309;-76
2024/04/10 04:09:58;;;;;;;;;;;7.20;1.00;;;;;;5447236;26;19932;-77
2024/04/10 04:12:24;;;;;;;;;;;7.30;1.00;;;;;;5458685;26;19960;-77
2024/04/10 04:14:50;;;;;;;;;;;7.40;1.00;;;;;;5396012;26;19929;-77
2024/04/10 04:17:15;;;;;;;;;;;7.40;1.00;;;;;;5408005;26;19944;-78
2024/04/10 04:19:41;;;;;;;;;;;7.40;1.00;;;;;;5414139;26;19929;-77
2024/04/10 04:22:07;;;;;;;;;;;7.40;1.00;;;;;;5415204;26;19933;-76
2024/04/10 04:24:32;;;;;;;;;;;7.40;1.00;;;;;;5430465;26;19929;-77
2024/04/10 04:26:58;;;;;;;;;;;7.40;1.00;;;;;;5418358;26;19939;-77
2024/04/10 04:29:25;;;;;;;;;;;7.30;1.00;;;;;;5398888;26;19941;-77
2024/04/10 04:31:50;;;;;;;;;;;7.40;1.00;;;;;;5414761;26;20354;-78
2024/04/10 04:34:16;;;;;;;;;;;7.30;1.00;;;;;;5417866;26;19929;-77
2024/04/10 04:36:42;;;;;;;;;;;7.40;1.00;;;;;;5409996;26;19942;-77
2024/04/10 04:39:08;;;;;;;;;;;7.40;1.00;;;;;;5407571;26;20005;-77
2024/04/10 04:41:37;;;;;;;;;;;7.40;1.00;;;;;;5416655;26;19929;-77
2024/04/10 04:44:03;;;;;;;;;;;7.40;1.00;;;;;;5383212;26;20272;-77
2024/04/10 04:46:31;;;;;;;;;;;7.50;1.00;;;;;;5424521;26;19928;-77
2024/04/10 04:49:01;;;;;;;;;;;7.50;1.00;;;;;;5434410;26;19930;-82
2024/04/10 04:51:31;;;;;;;;;;;7.50;1.00;;;;;;5394496;26;19937;-82
2024/04/10 04:53:57;;;;;;;;;;;7.50;1.00;;;;;;5401956;26;19941;-77
2024/04/10 04:56:22;;;;;;;;;;;7.70;1.00;;;;;;5421251;26;20422;-78
2024/04/10 04:58:51;;;;;;;;;;;7.70;1.00;;;;;;5424868;26;19929;-76
2024/04/10 05:01:17;;;;;;;;;;;7.70;1.00;;;;;;5436361;26;20441;-79
2024/04/10 05:06:36;;;;;;;;;;;7.70;1.00;;;;;;5382636;26;19941;-78
2024/04/10 05:09:09;;;;;;;;;;;7.70;1.00;;;;;;5383128;26;19934;-78
2024/04/10 05:11:38;;;;;;;;;;;7.70;1.00;;;;;;5379934;26;19933;-78
2024/04/10 05:14:05;;;;;;;;;;;7.80;1.00;;;;;;5396128;26;19927;-78
2024/04/10 05:16:31;;;;;;;;;;;7.70;1.00;;;;;;5473986;26;20391;-78
2024/04/10 05:18:58;;;;;;;;;;;7.70;1.00;;;;;;5463758;26;19979;-79
2024/04/10 05:21:25;;;;;;;;;;;7.70;1.00;;;;;;5447779;26;19935;-78
2024/04/10 05:23:52;;;;;;;;;;;7.70;1.00;;;;;;5469124;26;19928;-78
2024/04/10 05:26:18;;;;;;;;;;;7.70;1.00;;;;;;5440961;26;19929;-78
2024/04/10 05:28:44;;;;;;;;;;;7.70;1.00;;;;;;5434061;26;19955;-79
2024/04/10 05:31:11;;;;;;;;;;;7.70;1.00;;;;;;5417568;26;20264;-77
2024/04/10 05:33:37;;;;;;;;;;;7.70;1.00;;;;;;5441521;26;19933;-79
2024/04/10 05:36:04;;;;;;;;;;;7.80;1.00;;;;;;5438236;26;19935;-80
2024/04/10 05:38:30;;;;;;;;;;;7.80;1.00;;;;;;5451671;26;19961;-79
2024/04/10 05:41:03;;;;;;;;;;;7.80;1.00;;;;;;5453079;26;19954;-78
2024/04/10 05:43:32;;;;;;;;;;;7.90;1.00;;;;;;5442670;26;19933;-82
2024/04/10 05:45:59;;;;;;;;;;;8.00;1.00;;;;;;5441564;26;19961;-82
2024/04/10 05:48:34;;;;;;;;;;;8.20;1.00;;;;;;5417683;26;19961;-82
2024/04/10 05:50:59;;;;;;;;;;;8.30;1.00;;;;;;5418220;26;19982;-83
2024/04/10 05:53:40;;;;;;;;;;;8.40;1.00;;;;;;5444688;26;19932;-78
2024/04/10 05:56:05;;;;;;;;;;;8.40;1.00;;;;;;5441339;26;19929;-77
2024/04/10 05:58:33;;;;;;;;;;;8.40;1.00;;;;;;5428005;26;20028;-78
2024/04/10 06:01:04;;;;;;;;;;;8.50;1.00;;;;;;5457801;26;20023;-78
2024/04/10 06:03:37;;;;;;;;;;;8.60;1.00;;;;;;5435035;26;19929;-77
2024/04/10 06:06:06;;;;;;;;;;;8.80;1.00;;;;;;5441506;26;19945;-77
2024/04/10 06:08:32;;;;;;;;;;;8.70;1.00;;;;;;5435987;26;19998;-77
2024/04/10 06:10:57;;;;;;;;;;;8.80;1.00;;;;;;5462419;26;20325;-77
2024/04/10 06:13:25;;;;;;;;;;;8.90;1.00;;;;;;5444006;26;20432;-77
2024/04/10 06:15:59;;;;;;;;;;;9.10;1.00;;;;;;5431682;26;19994;-77
2024/04/10 06:18:25;;;;;;;;;;;9.10;1.00;;;;;;5459527;26;19978;-77
2024/04/10 06:20:57;;;;;;;;;;;9.30;1.00;;;;;;5453786;26;19936;-77
2024/04/10 06:23:24;;;;;;;;;;;9.20;1.00;;;;;;5457040;26;19938;-77
2024/04/10 06:25:55;;;;;;;;;;;9.60;1.00;;;;;;5456920;26;19928;-77
2024/04/10 06:28:23;;;;;;;;;;;9.60;1.00;;;;;;5462650;26;19929;-77
2024/04/10 06:30:55;;;;;;;;;;;9.90;1.00;;;;;;5457137;26;20382;-77
2024/04/10 06:33:21;;;;;;;;;;;9.90;1.00;;;;;;5444882;26;19929;-77
2024/04/10 06:35:47;;;;;;;;;;;9.90;1.00;;;;;;5463941;26;20328;-76
2024/04/10 06:38:12;;;;;;;;;;;10.00;1.00;;;;;;5431992;26;19933;-77
2024/04/10 06:40:38;;;;;;;;;;;10.00;1.00;;;;;;5444605;26;19929;-77
2024/04/10 06:43:04;;;;;;;;;;;10.00;1.00;;;;;;5433001;26;19928;-77
2024/04/10 06:45:30;;;;;;;;;;;10.00;1.00;;;;;;5432664;26;19936;-77
2024/04/10 06:47:55;;;;;;;;;;;9.80;1.00;;;;;;5438728;26;19929;-77
2024/04/10 06:50:25;;;;;;;;;;;9.80;1.00;;;;;;5440583;26;19929;-77
2024/04/10 06:52:51;;;;;;;;;;;9.70;1.00;;;;;;5436078;26;19929;-77
2024/04/10 06:55:17;;;;;;;;;;;9.70;1.00;;;;;;5454640;26;20302;-77
2024/04/10 06:57:42;;;;;;;;;;;9.70;1.00;;;;;;5438732;26;19937;-77
2024/04/10 07:00:14;;;;;;;;;;;9.80;1.00;;;;;;5477935;26;19928;-77
2024/04/10 07:02:40;;;;;;;;;;;9.90;1.00;;;;;;5467655;26;19944;-77
2024/04/10 07:05:06;;;;;;;;;;;10.00;1.00;;;;;;5472140;26;19960;-77
2024/04/10 07:07:32;;;;;;;;;;;10.10;1.00;;;;;;5456158;26;19932;-77
2024/04/10 07:10:03;;;;;;;;;;;10.10;1.00;;;;;;5448659;26;19929;-77
2024/04/10 07:12:29;;;;;;;;;;;10.10;1.00;;;;;;5463834;26;20004;-75
2024/04/10 07:14:56;;;;;;;;;;;10.10;1.00;;;;;;5427934;26;20348;-75
2024/04/10 07:17:31;;;;;;;;;;;10.10;1.00;;;;;;5435037;26;19993;-75
2024/04/10 07:19:56;;;;;;;;;;;10.20;1.00;;;;;;5419655;26;19929;-76
2024/04/10 07:22:22;;;;;;;;;;;10.10;1.00;;;;;;5419491;26;19936;-76
2024/04/10 07:24:51;;;;;;;;;;;10.10;1.00;;;;;;5443393;26;19939;-75
2024/04/10 07:27:19;;;;;;;;;;;10.10;1.00;;;;;;5429247;26;19929;-75
2024/04/10 07:29:44;;;;;;;;;;;10.40;1.00;;;;;;5455028;26;19936;-75
2024/04/10 07:32:10;;;;;;;;;;;10.50;1.00;;;;;;5440002;26;19936;-75
2024/04/10 07:34:36;;;;;;;;;;;10.40;1.00;;;;;;5456751;26;19932;-76
2024/04/10 07:37:03;;;;;;;;;;;10.50;1.00;;;;;;5442111;26;20282;-76
2024/04/10 07:39:29;;;;;;;;;;;10.50;1.00;;;;;;5443409;26;19932;-75
2024/04/10 07:42:01;;;;;;;;;;;;;;;;;;5458109;26;19954;-75
2024/04/10 07:44:32;;;;;;;;;;;10.60;1.00;;;;;;5431358;26;19929;-75
2024/04/10 07:47:02;;;;;;;;;;;10.70;1.00;;;;;;5440274;26;19933;-75
2024/04/10 07:49:28;;;;;;;;;;;10.80;1.00;;;;;;5447756;26;20318;-75
2024/04/10 07:51:53;;;;;;;;;;;10.70;1.00;;;;;;5462249;26;19940;-75
2024/04/10 07:54:19;;;;;;;;;;;11.00;1.00;;;;;;5478355;26;19934;-75
2024/04/10 07:56:49;;;;;;;;;;;11.00;1.00;;;;;;5454002;26;19928;-75
2024/04/10 07:59:14;;;;;;;;;;;11.10;1.00;;;;;;5447294;26;19940;-75
2024/04/10 08:01:40;;;;;;;;;;;11.30;1.00;;;;;;5451273;26;20001;-75
2024/04/10 08:04:06;;;;;;;;;;;11.40;1.00;;;;;;5425934;26;19936;-75
2024/04/10 08:06:36;;;;;;;;;;;11.40;1.00;;;;;;5429252;26;19929;-75
2024/04/10 08:09:02;;;;;;;;;;;11.30;1.00;;;;;;5478421;26;19974;-75
2024/04/10 08:11:28;;;;;;;;;;;11.30;1.00;;;;;;5441420;26;20260;-76
2024/04/10 08:13:54;;;;;;;;;;;11.30;1.00;;;;;;5457435;26;19928;-75
2024/04/10 08:16:20;;;;;;;;;;;11.50;1.00;;;;;;5422126;26;19935;-75
2024/04/10 08:18:46;;;;;;;;;;;11.90;1.00;;;;;;5448799;26;19936;-75
2024/04/10 08:21:13;;;;;;;;;;;11.90;1.00;;;;;;5446835;26;19929;-75
2024/04/10 08:23:39;;;;;;;;;;;12.10;1.00;;;;;;5435057;26;20025;-75
2024/04/10 08:26:14;;;;;;;;;;;12.20;1.00;;;;;;5430565;26;19929;-75
2024/04/10 08:28:48;;;;;;;;;;;12.40;1.00;;;;;;5455465;26;19977;-76
2024/04/10 08:31:17;;;;;;;;;;;12.30;1.00;;;;;;5427586;26;20261;-75
2024/04/10 08:33:50;;;;;;;;;;;12.40;1.00;;;;;;5432339;26;19940;-75
2024/04/10 08:36:16;;;;;;;;;;;12.30;1.00;;;;;;5459551;26;20351;-78
2024/04/10 08:38:42;;;;;;;;;;;12.30;1.00;;;;;;5431176;26;19936;-77
2024/04/10 08:41:15;;;;;;;;;;;12.30;1.00;;;;;;5418565;26;19936;-77
2024/04/10 08:43:44;;;;;;;;;;;12.30;1.00;;;;;;5442676;26;19975;-77
2024/04/10 08:46:10;;;;;;;;;;;12.30;1.00;;;;;;5454120;26;19978;-77
2024/04/10 08:48:38;;;;;;;;;;;12.50;1.00;;;;;;5429902;26;19929;-76
2024/04/10 08:51:05;;;;;;;;;;;12.50;1.00;;;;;;5439630;26;20033;-77
2024/04/10 08:53:33;;;;;;;;;;;12.80;1.00;;;;;;5450113;26;19936;-77
2024/04/10 08:55:59;;;;;;;;;;;12.70;1.00;;;;;;5459951;26;20387;-78
2024/04/10 08:58:25;;;;;;;;;;;14.40;1.00;;;;;;5450359;26;19935;-79
2024/04/10 09:00:51;;;;;;;;;;;12.90;1.00;;;;;;5440317;26;19955;-81
2024/04/10 09:03:17;;;;;;;;;;;13.10;1.00;;;;;;5437617;26;19933;-81
2024/04/10 09:05:42;;;;;;;;;;;13.00;1.00;;;;;;5443454;26;19932;-84
2024/04/10 09:08:19;;;;;;;;;;;13.00;1.00;;;;;;5431988;26;19937;-83
2024/04/10 09:11:01;;;;;;;;;;;13.10;1.00;;;;;;5418828;26;20357;-83
2024/04/10 09:13:28;;;;;;;;;;;13.40;1.00;;;;;;5456167;26;19953;-81
2024/04/10 09:16:07;;;;;;;;;;;13.60;1.00;;;;;;5409583;25;19936;-81
2024/04/10 09:18:37;;;;;;;;;;;13.90;1.00;;;;;;5451006;26;20267;-81
2024/04/10 09:21:04;;;;;;;;;;;14.10;1.00;;;;;;5430480;26;19929;-81
2024/04/10 09:23:29;;;;;;;;;;;14.10;1.00;;;;;;5473024;26;19957;-81
2024/04/10 09:26:01;;;;;;;;;;;14.10;1.00;;;;;;5445420;26;19997;-81
2024/04/10 09:28:27;;;;;;;;;;;14.10;1.00;;;;;;5435323;26;19935;-81
2024/04/10 09:31:01;;;;;;;;;;;14.40;1.00;;;;;;5418241;26;19929;-78
2024/04/10 09:33:31;;;;;;;;;;;14.30;1.00;;;;;;5441616;26;20376;-78
2024/04/10 09:35:57;;;;;;;;;;;14.50;1.00;;;;;;5441551;26;19928;-79
2024/04/10 09:38:23;;;;;;;;;;;14.80;1.00;;;;;;5449520;26;19937;-79
2024/04/10 09:41:01;;;;;;;;;;;15.00;1.00;;;;;;5453617;26;19933;-77
2024/04/10 09:43:31;;;;;;;;;;;16.60;1.00;;;;;;5467479;26;20304;-77
2024/04/10 09:46:03;;;;;;;;;;;15.20;1.00;;;;;;5486081;26;19928;-82
2024/04/10 09:48:32;;;;;;;;;;;15.50;1.00;;;;;;5437620;26;20009;-82
2024/04/10 09:51:10;;;;;;;;;;;15.50;1.00;;;;;;5457641;26;19929;-82
2024/04/10 09:53:36;;;;;;;;;;;15.60;1.00;;;;;;5417468;26;20268;-82
2024/04/10 09:56:09;;;;;;;;;;;15.90;1.00;;;;;;5472810;26;19971;-82
2024/04/10 09:58:35;;;;;;;;;;;15.60;1.00;;;;;;5479084;26;19934;-82
2024/04/10 10:01:10;;;;;;;;;;;15.50;1.00;;;;;;5440352;26;19936;-79
2024/04/10 10:03:35;;;;;;;;;;;15.40;1.00;;;;;;5449108;26;19935;-77
2024/04/10 10:06:07;;;;;;;;;;;15.40;1.00;;;;;;5450530;26;19933;-78
2024/04/10 10:08:36;;;;;;;;;;;15.30;1.00;;;;;;5435348;26;19943;-78
2024/04/10 10:11:02;;;;;;;;;;;15.30;1.00;;;;;;5462586;26;19929;-79
2024/04/10 10:13:31;;;;;;;;;;;15.10;1.00;;;;;;5452059;26;19937;-78
2024/04/10 10:15:58;;;;;;;;;;;15.00;1.00;;;;;;5441762;26;20367;-78
2024/04/10 10:18:24;;;;;;;;;;;15.00;1.00;;;;;;5453521;26;19941;-78
2024/04/10 10:21:03;;;;;;;;;;;14.90;1.00;;;;;;5433275;26;19929;-77
2024/04/10 10:23:35;;;;;;;;;;;14.80;1.00;;;;;;5418725;26;19959;-78
2024/04/10 10:26:01;;;;;;;;;;;14.90;1.00;;;;;;5415240;26;19933;-78
2024/04/10 10:28:29;;;;;;;;;;;14.90;1.00;;;;;;5442544;26;19960;-77
2024/04/10 10:31:08;;;;;;;;;;;14.80;1.00;;;;;;5451974;26;20268;-81
2024/04/10 10:33:38;;;;;;;;;;;14.80;1.00;;;;;;5456645;26;19942;-81
2024/04/10 10:36:07;;;;;;;;;;;15.00;1.00;;;;;;5475872;26;19940;-81
2024/04/10 10:38:33;;;;;;;;;;;15.20;1.00;;;;;;5436038;26;19957;-81
2024/04/10 10:41:08;;;;;;;;;;;15.60;1.00;;;;;;5444410;26;19936;-81
2024/04/10 10:43:33;;;;;;;;;;;16.10;1.00;;;;;;5460977;26;20384;-79
2024/04/10 10:45:59;;;;;;;;;;;16.60;1.00;;;;;;5448435;26;19998;-77
2024/04/10 10:48:28;;;;;;;;;;;16.50;1.00;;;;;;5442339;26;19928;-77
2024/04/10 10:50:54;;;;;;;;;;;16.30;1.00;;;;;;5430998;26;19989;-77
2024/04/10 10:53:21;;;;;;;;;;;16.40;1.00;;;;;;5441017;26;19936;-76
2024/04/10 10:55:56;;;;;;;;;;;16.50;1.00;;;;;;5457871;26;20384;-76
2024/04/10 10:58:25;;;;;;;;;;;16.50;1.00;;;;;;5433606;26;20001;-76
2024/04/10 11:00:52;;;;;;;;;;;16.60;1.00;;;;;;5475432;26;19929;-76
2024/04/10 11:03:19;;;;;;;;;;;16.50;1.00;;;;;;5455213;26;19928;-77
2024/04/10 11:05:49;;;;;;;;;;;16.40;1.00;;;;;;5470369;26;19932;-76
2024/04/10 11:08:22;;;;;;;;;;;16.40;1.00;;;;;;5472850;26;19934;-77
2024/04/10 11:10:48;;;;;;;;;;;16.60;1.00;;;;;;5448362;26;20004;-76
2024/04/10 11:13:19;;;;;;;;;;;17.20;1.00;;;;;;5466789;26;19929;-76
2024/04/10 11:15:51;;;;;;;;;;;17.70;1.00;;;;;;5455621;26;19932;-76
2024/04/10 11:18:17;;;;;;;;;;;17.80;1.00;;;;;;5465239;26;19960;-76
2024/04/10 11:20:44;;;;;;;;;;;17.80;1.00;;;;;;5462809;26;19933;-77
2024/04/10 11:23:09;;;;;;;;;;;18.10;1.00;;;;;;5450479;26;19935;-76
2024/04/10 11:25:37;;;;;;;;;;;17.90;1.00;;;;;;5459029;26;19928;-80
2024/04/10 11:28:03;;;;;;;;;;;18.00;1.00;;;;;;5417208;26;19929;-76
2024/04/10 11:30:30;;;;;;;;;;;18.20;1.00;;;;;;5434315;26;19954;-76
2024/04/10 11:32:56;;;;;;;;;;;18.20;1.00;;;;;;5455482;26;19936;-77
2024/04/10 11:35:22;;;;;;;;;;;18.10;1.00;;;;;;5457422;26;19928;-77
2024/04/10 11:37:54;;;;;;;;;;;17.50;1.00;;;;;;5454130;26;19937;-77
2024/04/10 11:40:22;;;;;;;;;;;16.50;1.00;;;;;;5464602;26;19928;-77
2024/04/10 11:42:48;;;;;;;;;;;16.40;1.00;;;;;;5467009;26;20441;-79
2024/04/10 11:45:14;;;;;;;;;;;16.40;1.00;;;;;;5472528;26;20311;-76
2024/04/10 11:47:43;;;;;;;;;;;16.60;1.00;;;;;;5458631;26;19928;-76
2024/04/10 11:50:11;;;;;;;;;;;16.60;1.00;;;;;;5452524;26;19939;-77
2024/04/10 11:52:39;;;;;;;;;;;16.60;1.00;;;;;;5454970;26;19929;-77
2024/04/10 11:55:07;;;;;;;;;;;16.50;1.00;;;;;;5450004;26;19942;-77
2024/04/10 11:57:33;;;;;;;;;;;16.60;1.00;;;;;;5461674;26;20719;-77
2024/04/10 12:00:05;;;;;;;;;;;16.10;1.00;;;;;;5454852;26;19932;-77
2024/04/10 12:02:31;;;;;;;;;;;16.10;1.00;;;;;;5453882;26;19999;-77
2024/04/10 12:04:57;;;;;;;;;;;15.80;1.00;;;;;;5454281;26;19939;-77
2024/04/10 12:07:22;;;;;;;;;;;15.70;1.00;;;;;;5458564;26;19940;-77
2024/04/10 12:09:48;;;;;;;;;;;15.70;1.00;;;;;;5462839;26;19940;-76
2024/04/10 12:12:15;;;;;;;;;;;15.80;1.00;;;;;;5472919;26;19936;-77
2024/04/10 12:14:44;;;;;;;;;;;15.80;1.00;;;;;;5454514;26;19935;-77
2024/04/10 12:17:09;;;;;;;;;;;15.90;1.00;;;;;;5448931;26;19947;-77
2024/04/10 12:19:35;;;;;;;;;;;16.10;1.00;;;;;;5468023;26;19932;-77
2024/04/10 12:22:01;;;;;;;;;;;16.10;1.00;;;;;;5471122;26;19935;-77
2024/04/10 12:24:31;;;;;;;;;;;16.10;1.00;;;;;;5460234;26;19940;-77
2024/04/10 12:26:57;;;;;;;;;;;16.10;1.00;;;;;;5452222;26;19936;-77
2024/04/10 12:29:23;;;;;;;;;;;16.20;1.00;;;;;;5429196;26;19928;-77
2024/04/10 12:31:49;;;;;;;;;;;16.30;1.00;;;;;;5454124;26;19929;-77
2024/04/10 12:34:25;;;;;;;;;;;16.40;1.00;;;;;;5457937;26;19941;-77
2024/04/10 12:39:39;;;;;;;;;;;16.60;1.00;;;;;;5467811;26;19935;-75
2024/04/10 12:42:05;;;;;;;;;;;16.70;1.00;;;;;;5452149;26;19941;-76
2024/04/10 12:44:30;;;;;;;;;;;17.00;1.00;;;;;;5442848;26;20020;-77
2024/04/10 12:46:58;;;;;;;;;;;17.10;1.00;;;;;;5456849;26;19928;-76
2024/04/10 12:49:28;;;;;;;;;;;17.40;1.00;;;;;;5472850;26;19928;-76
2024/04/10 12:51:55;;;;;;;;;;;17.50;1.00;;;;;;5459049;26;19928;-76
2024/04/10 12:54:21;;;;;;;;;;;17.60;1.00;;;;;;5456857;26;19935;-77
2024/04/10 12:56:49;;;;;;;;;;;17.80;1.00;;;;;;5454231;26;19929;-76
2024/04/10 12:59:15;;;;;;;;;;;17.90;1.00;;;;;;5459473;26;20360;-76
2024/04/10 13:01:41;;;;;;;;;;;18.10;1.00;;;;;;5459768;26;19928;-78
2024/04/10 13:04:06;;;;;;;;;;;18.40;1.00;;;;;;5454053;26;19940;-78
2024/04/10 13:06:32;;;;;;;;;;;18.70;1.00;;;;;;5477657;26;19996;-76
2024/04/10 13:08:58;;;;;;;;;;;18.80;1.00;;;;;;5482960;26;20352;-76
2024/04/10 13:11:25;;;;;;;;;;;18.90;1.00;;;;;;5461073;26;19936;-76
2024/04/10 13:13:51;;;;;;;;;;;19.00;1.00;;;;;;5456670;26;19928;-75
2024/04/10 13:16:17;;;;;;;;;;;19.00;1.00;;;;;;5442038;26;19929;-76
2024/04/10 13:18:49;;;;;;;;;;;19.00;1.00;;;;;;5461205;26;19940;-76
2024/04/10 13:21:15;;;;;;;;;;;18.70;1.00;;;;;;5462799;26;19928;-76
2024/04/10 13:23:42;;;;;;;;;;;18.70;1.00;;;;;;5467278;26;19954;-76
2024/04/10 13:26:09;;;;;;;;;;;18.50;1.00;;;;;;5450653;26;19992;-75
2024/04/10 13:28:37;;;;;;;;;;;18.00;1.00;;;;;;5466182;26;19944;-76
2024/04/10 13:31:11;;;;;;;;;;;17.90;1.00;;;;;;5473843;26;19943;-76
2024/04/10 13:33:43;;;;;;;;;;;18.10;1.00;;;;;;5461060;26;19939;-76
2024/04/10 13:36:14;;;;;;;;;;;18.10;1.00;;;;;;5457874;26;20001;-76
2024/04/10 13:38:43;;;;;;;;;;;18.20;1.00;;;;;;5452953;26;19933;-75
2024/04/10 13:41:10;;;;;;;;;;;18.20;1.00;;;;;;5464651;26;19963;-75
2024/04/10 13:43:36;;;;;;;;;;;17.90;1.00;;;;;;5488744;26;20260;-76
2024/04/10 13:46:05;;;;;;;;;;;18.10;1.00;;;;;;5441749;26;19936;-75
2024/04/10 13:48:32;;;;;;;;;;;18.50;1.00;;;;;;5447191;26;20272;-76
2024/04/10 13:50:58;;;;;;;;;;;18.70;1.00;;;;;;5470405;26;19928;-75
2024/04/10 13:53:24;;;;;;;;;;;18.70;1.00;;;;;;5454903;26;20005;-75
2024/04/10 13:55:50;;;;;;;;;;;19.00;1.00;;;;;;5451313;26;20005;-75
2024/04/10 13:58:19;;;;;;;;;;;19.40;1.00;;;;;;5465532;26;19935;-75
2024/04/10 14:00:46;;;;;;;;;;;19.90;1.00;;;;;;5460917;26;19935;-75
2024/04/10 14:03:13;;;;;;;;;;;20.20;1.00;;;;;;5448398;26;19929;-75
2024/04/10 14:05:39;;;;;;;;;;;20.10;1.00;;;;;;5456972;26;19935;-75
2024/04/10 14:08:07;;;;;;;;;;;20.10;1.00;;;;;;5452727;26;19960;-76
2024/04/10 14:10:35;;;;;;;;;;;20.00;1.00;;;;;;5453167;26;19928;-74
2024/04/10 14:13:04;;;;;;;;;;;19.70;1.00;;;;;;5473578;26;19936;-74
2024/04/10 14:15:30;;;;;;;;;;;19.40;1.00;;;;;;5458289;26;19929;-75
2024/04/10 14:17:56;;;;;;;;;;;19.40;1.00;;;;;;5456546;26;20397;-75
2024/04/10 14:20:22;;;;;;;;;;;19.50;1.00;;;;;;5473237;26;19935;-75
2024/04/10 14:22:47;;;;;;;;;;;19.10;1.00;;;;;;5456161;26;19929;-76
2024/04/10 14:25:13;;;;;;;;;;;19.00;1.00;;;;;;5456624;26;19935;-75
2024/04/10 14:27:48;;;;;;;;;;;18.90;1.00;;;;;;5458190;26;19940;-76
2024/04/10 14:30:13;;;;;;;;;;;18.90;1.00;;;;;;5442120;26;20678;-75
2024/04/10 14:32:43;;;;;;;;;;;18.40;1.00;;;;;;5452467;26;19936;-76
2024/04/10 14:35:09;;;;;;;;;;;18.20;1.00;;;;;;5452457;26;19933;-76
2024/04/10 14:37:34;;;;;;;;;;;18.10;1.00;;;;;;5473489;26;19968;-76
2024/04/10 14:40:00;;;;;;;;;;;18.30;1.00;;;;;;5455916;26;19997;-76
2024/04/10 14:42:25;;;;;;;;;;;18.20;1.00;;;;;;5458341;26;19932;-76
2024/04/10 14:44:52;;;;;;;;;;;18.10;1.00;;;;;;5462066;26;19929;-76